Time;durP1;ratioP1;P1;durP2;ratioP2;P2;SDS_P1;SDS_P2;PMS_P1;PMS_P2;Temp;Humidity;BMP_temperature;BMP_pressure;BME280_temperature;BME280_humidity;BME280_pressure;Samples;Min_cycle;Max_cycle;Signal;HPM_P1;HPM_P2
2022/03/30 00:00:53;;;;;;;0.50;0.17;;;;;;;;;;5072648;28;20031;-66
2022/03/30 00:03:19;;;;;;;3.87;0.83;;;;;;;;;;5072536;28;20029;-66
2022/03/30 00:05:45;;;;;;;0.93;0.80;;;;;;;;;;5055015;28;20112;-66
2022/03/30 00:08:12;;;;;;;0.00;0.00;;;;;;;;;;5072505;28;20031;-67
2022/03/30 00:10:38;;;;;;;13.30;5.20;;;;;;;;;;5072719;28;20029;-66
2022/03/30 00:13:04;;;;;;;0.53;0.30;;;;;;;;;;5070418;28;20025;-66
2022/03/30 00:15:31;;;;;;;2.63;2.13;;;;;;;;;;5052159;28;20112;-67
2022/03/30 00:17:57;;;;;;;1.10;0.83;;;;;;;;;;5051356;28;20095;-67
2022/03/30 00:20:24;;;;;;;0.30;0.30;;;;;;;;;;5052022;28;20100;-67
2022/03/30 00:22:50;;;;;;;1.83;1.67;;;;;;;;;;5051180;28;20032;-67
2022/03/30 00:25:16;;;;;;;0.00;0.00;;;;;;;;;;5051415;28;20068;-66
2022/03/30 00:27:46;;;;;;;12.97;3.97;;;;;;;;;;5021767;28;20029;-67
2022/03/30 00:30:14;;;;;;;7.97;5.97;;;;;;;;;;5047898;28;20071;-67
2022/03/30 00:32:40;;;;;;;2.00;1.90;;;;;;;;;;5033417;28;20472;-66
2022/03/30 00:35:07;;;;;;;1.33;0.13;;;;;;;;;;5051753;28;20025;-67
2022/03/30 00:37:37;;;;;;;12.47;3.87;;;;;;;;;;5032981;28;20029;-67
2022/03/30 00:40:04;;;;;;;0.77;0.20;;;;;;;;;;5051850;28;20021;-67
2022/03/30 00:42:31;;;;;;;6.03;1.50;;;;;;;;;;5051899;28;20021;-67
2022/03/30 00:44:57;;;;;;;0.27;0.27;;;;;;;;;;5033697;28;20028;-67
2022/03/30 00:47:25;;;;;;;4.17;3.20;;;;;;;;;;5033507;28;20147;-67
2022/03/30 00:49:52;;;;;;;3.47;1.77;;;;;;;;;;5051500;28;20025;-67
2022/03/30 00:52:20;;;;;;;0.57;0.57;;;;;;;;;;5033523;28;20044;-67
2022/03/30 00:54:48;;;;;;;0.43;0.37;;;;;;;;;;5063744;28;20024;-67
2022/03/30 00:57:15;;;;;;;1.00;0.77;;;;;;;;;;5053637;28;20161;-67
2022/03/30 00:59:42;;;;;;;2.33;2.23;;;;;;;;;;5071224;28;20512;-67
2022/03/30 01:02:09;;;;;;;0.00;0.00;;;;;;;;;;5058049;28;20029;-67
2022/03/30 01:04:36;;;;;;;0.50;0.50;;;;;;;;;;5050762;28;20025;-67
2022/03/30 01:07:03;;;;;;;0.00;0.00;;;;;;;;;;5032428;28;20265;-67
2022/03/30 01:09:29;;;;;;;9.03;1.07;;;;;;;;;;5046172;28;20086;-67
2022/03/30 01:11:56;;;;;;;0.00;0.00;;;;;;;;;;5033889;28;20021;-67
2022/03/30 01:14:23;;;;;;;0.00;0.00;;;;;;;;;;5064104;28;20476;-67
2022/03/30 01:16:50;;;;;;;1.40;0.63;;;;;;;;;;5072909;28;20479;-68
2022/03/30 01:19:16;;;;;;;2.00;0.87;;;;;;;;;;5071421;28;20044;-68
2022/03/30 01:21:43;;;;;;;0.00;0.00;;;;;;;;;;5060616;28;20436;-67
2022/03/30 01:24:12;;;;;;;12.43;2.97;;;;;;;;;;5070920;28;20211;-66
2022/03/30 01:26:40;;;;;;;0.57;0.57;;;;;;;;;;5046569;28;20040;-66
2022/03/30 01:32:25;;;;;;;0.30;0.30;;;;;;;;;;5070959;28;20033;-66
2022/03/30 01:34:41;;;;;;;0.00;0.00;;;;;;;;;;5068250;28;20042;-66
2022/03/30 01:37:10;;;;;;;0.00;0.00;;;;;;;;;;5070590;28;20024;-67
2022/03/30 01:39:37;;;;;;;0.00;0.00;;;;;;;;;;5070256;28;20031;-67
2022/03/30 01:42:04;;;;;;;0.10;0.10;;;;;;;;;;5066139;28;20032;-67
2022/03/30 01:44:30;;;;;;;0.15;0.15;;;;;;;;;;5072082;28;20111;-68
2022/03/30 01:46:57;;;;;;;2.75;1.65;;;;;;;;;;5074379;28;20055;-68
2022/03/30 01:49:24;;;;;;;0.47;0.47;;;;;;;;;;5053059;28;20025;-68
2022/03/30 01:51:54;;;;;;;0.28;0.28;;;;;;;;;;5083541;28;20502;-68
2022/03/30 01:54:22;;;;;;;0.10;0.10;;;;;;;;;;5086390;28;20025;-68
2022/03/30 01:56:49;;;;;;;3.60;3.00;;;;;;;;;;5051768;28;20028;-68
2022/03/30 01:59:16;;;;;;;1.17;0.95;;;;;;;;;;5063025;28;20063;-68
2022/03/30 02:01:42;;;;;;;2.45;2.25;;;;;;;;;;5061734;28;20082;-68
2022/03/30 02:04:09;;;;;;;6.75;4.55;;;;;;;;;;5050603;28;20107;-68
2022/03/30 02:06:36;;;;;;;0.88;0.75;;;;;;;;;;5049607;28;20025;-68
2022/03/30 02:09:03;;;;;;;12.60;2.47;;;;;;;;;;5045458;28;20058;-68
2022/03/30 02:11:29;;;;;;;13.10;5.22;;;;;;;;;;5073376;28;20031;-68
2022/03/30 02:13:56;;;;;;;5.68;2.05;;;;;;;;;;5062917;28;20036;-68
2022/03/30 02:16:22;;;;;;;32.88;3.25;;;;;;;;;;5075706;28;20029;-67
2022/03/30 02:18:49;;;;;;;2.70;2.45;;;;;;;;;;5076906;28;20035;-68
2022/03/30 02:21:16;;;;;;;3.75;3.50;;;;;;;;;;5070883;28;20111;-67
2022/03/30 02:23:42;;;;;;;3.92;2.20;;;;;;;;;;5070018;28;20093;-67
2022/03/30 02:26:09;;;;;;;0.35;0.35;;;;;;;;;;5067929;28;21457;-68
2022/03/30 02:28:35;;;;;;;2.28;1.48;;;;;;;;;;5061561;28;20044;-67
2022/03/30 02:31:01;;;;;;;1.55;1.25;;;;;;;;;;5062537;28;20024;-67
2022/03/30 02:33:28;;;;;;;8.68;6.93;;;;;;;;;;5075206;28;21590;-67
2022/03/30 02:35:54;;;;;;;16.98;12.77;;;;;;;;;;5072349;28;20036;-68
2022/03/30 02:38:20;;;;;;;13.43;7.65;;;;;;;;;;5069253;28;20052;-67
2022/03/30 02:40:46;;;;;;;11.90;4.40;;;;;;;;;;5071386;28;20036;-67
2022/03/30 02:43:16;;;;;;;18.73;9.77;;;;;;;;;;5065705;28;20036;-67
2022/03/30 02:45:43;;;;;;;16.75;8.27;;;;;;;;;;5065870;28;20078;-68
2022/03/30 02:48:19;;;;;;;6.30;5.82;;;;;;;;;;5071767;28;20060;-68
2022/03/30 02:50:46;;;;;;;2.53;2.30;;;;;;;;;;5068053;28;20116;-68
2022/03/30 02:53:13;;;;;;;1.67;1.58;;;;;;;;;;5067954;28;20028;-68
2022/03/30 02:55:39;;;;;;;2.13;1.98;;;;;;;;;;5064048;28;20123;-68
2022/03/30 02:58:06;;;;;;;0.70;0.70;;;;;;;;;;5068549;28;20055;-67
2022/03/30 03:00:32;;;;;;;5.55;4.18;;;;;;;;;;5066949;28;20401;-68
2022/03/30 03:03:02;;;;;;;3.50;3.30;;;;;;;;;;5072234;28;20508;-68
2022/03/30 03:05:32;;;;;;;8.88;8.18;;;;;;;;;;5063853;28;20028;-68
2022/03/30 03:08:01;;;;;;;8.57;6.75;;;;;;;;;;5058699;28;20103;-68
2022/03/30 03:10:28;;;;;;;3.17;2.78;;;;;;;;;;5063495;28;20439;-67
2022/03/30 03:12:55;;;;;;;10.05;4.70;;;;;;;;;;5066984;28;20032;-68
2022/03/30 03:15:22;;;;;;;2.03;1.88;;;;;;;;;;5050273;28;20132;-67
2022/03/30 03:17:49;;;;;;;3.97;2.35;;;;;;;;;;5045482;28;20480;-67
2022/03/30 03:20:15;;;;;;;11.60;4.53;;;;;;;;;;5041677;28;20037;-66
2022/03/30 03:22:42;;;;;;;21.60;4.55;;;;;;;;;;5046649;28;20039;-67
2022/03/30 03:25:10;;;;;;;9.13;4.82;;;;;;;;;;5048279;28;20048;-66
2022/03/30 03:27:36;;;;;;;2.13;1.75;;;;;;;;;;5043748;28;20044;-67
2022/03/30 03:30:03;;;;;;;3.08;2.55;;;;;;;;;;5041564;28;20163;-67
2022/03/30 03:32:29;;;;;;;11.90;3.75;;;;;;;;;;5048772;28;20029;-67
2022/03/30 03:34:55;;;;;;;8.85;4.18;;;;;;;;;;5045557;28;20083;-67
2022/03/30 03:37:22;;;;;;;8.38;1.45;;;;;;;;;;5027386;28;20056;-66
2022/03/30 03:39:48;;;;;;;18.58;6.53;;;;;;;;;;5028987;28;20029;-68
2022/03/30 03:42:16;;;;;;;5.00;4.53;;;;;;;;;;5041763;28;20033;-67
2022/03/30 03:44:42;;;;;;;5.88;5.43;;;;;;;;;;5042930;28;20381;-66
2022/03/30 03:47:09;;;;;;;5.40;2.22;;;;;;;;;;5023677;28;20742;-67
2022/03/30 03:49:38;;;;;;;33.03;4.75;;;;;;;;;;5044613;28;20029;-70
2022/03/30 03:52:05;;;;;;;12.02;4.93;;;;;;;;;;5024810;28;20479;-69
2022/03/30 03:54:32;;;;;;;12.27;5.90;;;;;;;;;;5024122;28;20029;-68
2022/03/30 03:57:00;;;;;;;27.17;10.55;;;;;;;;;;5039910;28;20034;-68
2022/03/30 03:59:27;;;;;;;9.25;5.13;;;;;;;;;;5041535;28;20025;-70
2022/03/30 04:01:53;;;;;;;9.50;3.15;;;;;;;;;;5045907;28;20540;-69
2022/03/30 04:04:19;;;;;;;1.88;1.33;;;;;;;;;;5044529;28;20029;-69
2022/03/30 04:06:46;;;;;;;3.78;3.17;;;;;;;;;;5047063;28;20127;-68
2022/03/30 04:09:12;;;;;;;4.88;1.90;;;;;;;;;;5026900;28;20025;-68
2022/03/30 04:11:39;;;;;;;0.65;0.55;;;;;;;;;;5045665;28;20040;-69
2022/03/30 04:14:05;;;;;;;14.45;2.83;;;;;;;;;;5046570;28;20389;-68
2022/03/30 04:16:32;;;;;;;5.93;2.05;;;;;;;;;;5047012;28;20056;-68
2022/03/30 04:18:58;;;;;;;11.77;3.75;;;;;;;;;;5024141;28;20493;-67
2022/03/30 04:21:24;;;;;;;3.28;1.58;;;;;;;;;;5019340;28;20056;-69
2022/03/30 04:23:51;;;;;;;9.50;4.88;;;;;;;;;;5041409;28;20107;-69
2022/03/30 04:26:17;;;;;;;0.10;0.10;;;;;;;;;;5029337;28;20029;-69
2022/03/30 04:28:44;;;;;;;6.32;4.22;;;;;;;;;;5044933;28;20048;-68
2022/03/30 04:31:13;;;;;;;6.20;2.58;;;;;;;;;;5047987;28;20074;-68
2022/03/30 04:33:40;;;;;;;18.38;6.60;;;;;;;;;;5029708;28;20029;-69
2022/03/30 04:36:06;;;;;;;8.68;3.83;;;;;;;;;;5030265;28;20063;-67
2022/03/30 04:38:33;;;;;;;4.28;2.60;;;;;;;;;;5027465;28;20049;-67
2022/03/30 04:41:00;;;;;;;10.63;3.45;;;;;;;;;;5046395;28;20032;-67
2022/03/30 04:43:28;;;;;;;8.68;2.67;;;;;;;;;;5045818;28;20556;-68
2022/03/30 04:45:55;;;;;;;0.52;0.52;;;;;;;;;;5027708;28;20029;-68
2022/03/30 04:48:22;;;;;;;0.65;0.30;;;;;;;;;;5028009;28;20507;-68
2022/03/30 04:50:49;;;;;;;2.38;1.52;;;;;;;;;;5042278;28;20082;-68
2022/03/30 04:53:15;;;;;;;4.03;2.67;;;;;;;;;;5044995;28;20156;-68
2022/03/30 04:55:42;;;;;;;11.02;1.30;;;;;;;;;;5025080;28;20053;-69
2022/03/30 04:58:08;;;;;;;4.45;2.30;;;;;;;;;;5046508;28;20082;-68
2022/03/30 05:00:38;;;;;;;1.08;0.60;;;;;;;;;;5026029;28;20026;-70
2022/03/30 05:03:04;;;;;;;4.57;2.67;;;;;;;;;;5044918;28;20483;-69
2022/03/30 05:05:30;;;;;;;6.97;3.70;;;;;;;;;;5022028;28;20021;-69
2022/03/30 05:07:57;;;;;;;2.05;1.20;;;;;;;;;;5044481;28;20500;-70
2022/03/30 05:10:23;;;;;;;1.70;0.80;;;;;;;;;;5040149;28;20025;-67
2022/03/30 05:12:49;;;;;;;0.10;0.10;;;;;;;;;;5027313;28;20052;-67
2022/03/30 05:15:15;;;;;;;2.95;0.93;;;;;;;;;;5059469;28;20074;-67
2022/03/30 05:17:46;;;;;;;10.60;2.00;;;;;;;;;;5060369;28;20488;-68
2022/03/30 05:20:16;;;;;;;1.92;1.35;;;;;;;;;;5045704;28;20127;-68
2022/03/30 05:22:43;;;;;;;2.75;2.55;;;;;;;;;;5057651;28;20040;-67
2022/03/30 05:25:10;;;;;;;4.65;2.30;;;;;;;;;;5045861;28;20023;-67
2022/03/30 05:27:38;;;;;;;4.68;0.65;;;;;;;;;;5064621;28;20020;-69
2022/03/30 05:30:05;;;;;;;0.70;0.40;;;;;;;;;;5058435;28;20079;-69
2022/03/30 05:32:31;;;;;;;6.85;1.80;;;;;;;;;;5046755;28;20032;-68
2022/03/30 05:34:58;;;;;;;4.32;1.17;;;;;;;;;;5068374;28;20021;-68
2022/03/30 05:37:24;;;;;;;0.20;0.13;;;;;;;;;;5049654;28;20021;-69
2022/03/30 05:39:51;;;;;;;0.55;0.55;;;;;;;;;;5041700;28;20063;-68
2022/03/30 05:42:17;;;;;;;1.45;0.85;;;;;;;;;;5044756;28;20057;-69
2022/03/30 05:44:43;;;;;;;3.92;0.47;;;;;;;;;;5057479;28;20035;-69
2022/03/30 05:47:10;;;;;;;0.30;0.30;;;;;;;;;;5069196;28;20179;-69
2022/03/30 05:49:37;;;;;;;1.17;0.10;;;;;;;;;;5049213;28;20040;-69
2022/03/30 05:52:04;;;;;;;5.90;1.33;;;;;;;;;;5040644;28;20029;-68
2022/03/30 05:54:30;;;;;;;0.90;0.10;;;;;;;;;;5069453;28;20021;-68
2022/03/30 05:57:00;;;;;;;2.22;1.23;;;;;;;;;;5063322;28;20036;-68
2022/03/30 05:59:34;;;;;;;2.13;0.35;;;;;;;;;;5043599;28;20021;-69
2022/03/30 06:02:01;;;;;;;3.78;0.75;;;;;;;;;;5049241;28;20369;-68
2022/03/30 06:04:28;;;;;;;0.57;0.35;;;;;;;;;;5061695;28;20103;-68
2022/03/30 06:06:54;;;;;;;10.15;1.92;;;;;;;;;;5049280;28;20070;-68
2022/03/30 06:09:21;;;;;;;1.08;0.20;;;;;;;;;;5062089;28;20050;-70
2022/03/30 06:11:47;;;;;;;0.85;0.75;;;;;;;;;;5069396;28;20025;-70
2022/03/30 06:14:14;;;;;;;4.18;1.20;;;;;;;;;;5050472;28;20378;-71
2022/03/30 06:16:42;;;;;;;7.88;1.20;;;;;;;;;;5043405;28;20051;-69
2022/03/30 06:19:09;;;;;;;8.98;1.67;;;;;;;;;;5029182;28;20396;-70
2022/03/30 06:21:36;;;;;;;3.35;2.30;;;;;;;;;;5022005;28;20120;-70
2022/03/30 06:24:03;;;;;;;0.25;0.25;;;;;;;;;;5024590;28;20025;-70
2022/03/30 06:26:29;;;;;;;1.40;0.80;;;;;;;;;;5022535;28;20097;-69
2022/03/30 06:28:56;;;;;;;12.13;2.55;;;;;;;;;;5029140;28;20064;-68
2022/03/30 06:31:22;;;;;;;1.63;0.98;;;;;;;;;;5021718;28;20128;-67
2022/03/30 06:33:49;;;;;;;3.70;1.33;;;;;;;;;;5028014;28;20090;-69
2022/03/30 06:36:16;;;;;;;0.00;0.00;;;;;;;;;;5020457;28;20032;-68
2022/03/30 06:38:43;;;;;;;1.92;1.05;;;;;;;;;;5051345;28;20064;-70
2022/03/30 06:41:10;;;;;;;1.45;1.35;;;;;;;;;;5046499;28;20036;-68
2022/03/30 06:43:38;;;;;;;10.98;2.40;;;;;;;;;;5032790;28;20166;-68
2022/03/30 06:46:04;;;;;;;10.82;3.25;;;;;;;;;;5047595;28;20048;-69
2022/03/30 06:48:31;;;;;;;8.60;2.08;;;;;;;;;;5038999;28;20024;-69
2022/03/30 06:50:58;;;;;;;8.57;2.75;;;;;;;;;;5049562;28;20033;-68
2022/03/30 06:53:24;;;;;;;2.28;2.03;;;;;;;;;;5045376;28;20030;-69
2022/03/30 06:55:52;;;;;;;7.90;3.22;;;;;;;;;;5050980;28;20112;-69
2022/03/30 06:58:18;;;;;;;0.00;0.00;;;;;;;;;;5046109;28;20024;-68
2022/03/30 07:00:44;;;;;;;0.43;0.43;;;;;;;;;;5051657;28;20025;-69
2022/03/30 07:03:11;;;;;;;6.80;2.20;;;;;;;;;;5051223;28;20040;-68
2022/03/30 07:05:38;;;;;;;4.47;3.35;;;;;;;;;;5027007;28;20453;-69
2022/03/30 07:10:49;;;;;;;5.60;1.90;;;;;;;;;;5046363;28;20052;-70
2022/03/30 07:13:16;;;;;;;12.90;2.65;;;;;;;;;;5033346;28;20035;-67
2022/03/30 07:15:42;;;;;;;0.30;0.20;;;;;;;;;;5070500;28;20043;-68
2022/03/30 07:18:08;;;;;;;6.15;2.15;;;;;;;;;;5071071;28;20051;-69
2022/03/30 07:20:36;;;;;;;9.90;8.90;;;;;;;;;;5067730;28;20012;-69
2022/03/30 07:23:02;;;;;;;1.67;1.58;;;;;;;;;;5047656;28;20024;-69
2022/03/30 07:25:29;;;;;;;1.75;0.90;;;;;;;;;;5048853;28;20107;-69
2022/03/30 07:27:58;;;;;;;0.00;0.00;;;;;;;;;;5067547;28;20024;-69
2022/03/30 07:30:24;;;;;;;3.15;1.30;;;;;;;;;;5069163;28;20017;-68
2022/03/30 07:32:51;;;;;;;0.20;0.20;;;;;;;;;;5067015;28;20102;-69
2022/03/30 07:35:19;;;;;;;2.55;1.77;;;;;;;;;;5065821;28;20035;-78
2022/03/30 07:37:46;;;;;;;6.43;0.68;;;;;;;;;;5049521;28;20028;-78
2022/03/30 07:40:16;;;;;;;2.83;0.93;;;;;;;;;;5050874;28;20040;-77
2022/03/30 07:42:43;;;;;;;0.00;0.00;;;;;;;;;;5053775;28;20111;-78
2022/03/30 07:45:10;;;;;;;0.00;0.00;;;;;;;;;;5052429;28;20040;-78
2022/03/30 07:47:36;;;;;;;47.28;26.20;;;;;;;;;;5069551;28;20044;-76
2022/03/30 07:50:03;;;;;;;0.00;0.00;;;;;;;;;;5070836;28;20025;-76
2022/03/30 07:52:30;;;;;;;1.08;0.80;;;;;;;;;;5078410;28;20036;-77
2022/03/30 07:54:56;;;;;;;0.00;0.00;;;;;;;;;;5049398;28;20028;-77
2022/03/30 07:57:27;;;;;;;4.88;2.00;;;;;;;;;;5069827;28;20078;-78
2022/03/30 07:59:57;;;;;;;2.38;1.35;;;;;;;;;;5073904;28;20089;-81
2022/03/30 08:02:24;;;;;;;3.08;1.55;;;;;;;;;;5048823;28;20054;-81
2022/03/30 08:04:51;;;;;;;2.03;1.77;;;;;;;;;;5068064;28;20111;-81
2022/03/30 08:07:18;;;;;;;0.17;0.15;;;;;;;;;;5066415;28;20036;-83
2022/03/30 08:09:45;;;;;;;0.10;0.10;;;;;;;;;;5066930;28;20111;-82
2022/03/30 08:12:12;;;;;;;7.68;2.75;;;;;;;;;;5071779;28;20016;-80
2022/03/30 08:14:38;;;;;;;0.30;0.30;;;;;;;;;;5068027;28;20128;-80
2022/03/30 08:17:05;;;;;;;0.00;0.00;;;;;;;;;;5068083;28;20433;-82
2022/03/30 08:19:32;;;;;;;0.15;0.15;;;;;;;;;;5065877;28;20017;-80
2022/03/30 08:24:46;;;;;;;0.00;0.00;;;;;;;;;;5065539;28;20040;-81
2022/03/30 08:27:31;;;;;;;7.53;3.92;;;;;;;;;;5065825;28;20020;-83
2022/03/30 08:29:58;;;;;;;0.10;0.10;;;;;;;;;;5050945;28;20098;-80
2022/03/30 08:32:25;;;;;;;4.88;1.30;;;;;;;;;;5049999;28;20035;-80
2022/03/30 08:34:53;;;;;;;1.17;0.22;;;;;;;;;;5052604;28;20024;-80
2022/03/30 08:37:20;;;;;;;9.80;2.10;;;;;;;;;;5048602;28;20039;-80
2022/03/30 08:39:46;;;;;;;3.35;0.82;;;;;;;;;;5050268;28;20376;-80
2022/03/30 08:42:15;;;;;;;5.10;2.22;;;;;;;;;;5065433;28;20020;-78
2022/03/30 08:44:42;;;;;;;6.63;2.00;;;;;;;;;;5049350;28;20380;-78
2022/03/30 08:47:12;;;;;;;5.32;0.43;;;;;;;;;;5068218;28;20056;-79
2022/03/30 08:49:43;;;;;;;0.88;0.20;;;;;;;;;;5047670;28;20405;-79
2022/03/30 08:52:11;;;;;;;9.45;3.50;;;;;;;;;;5061095;28;20043;-79
2022/03/30 08:54:37;;;;;;;3.60;3.30;;;;;;;;;;5070493;28;20025;-79
2022/03/30 08:57:04;;;;;;;4.53;2.13;;;;;;;;;;5047464;28;20024;-79
2022/03/30 08:59:30;;;;;;;2.08;0.45;;;;;;;;;;5051961;28;20037;-79
2022/03/30 09:01:58;;;;;;;3.75;1.17;;;;;;;;;;5063842;28;20552;-78
2022/03/30 09:04:25;;;;;;;5.35;1.13;;;;;;;;;;5060793;28;20059;-77
2022/03/30 09:06:56;;;;;;;3.30;0.80;;;;;;;;;;5064476;28;20071;-75
2022/03/30 09:09:33;;;;;;;0.00;0.00;;;;;;;;;;5063535;28;20029;-76
2022/03/30 09:12:00;;;;;;;0.00;0.00;;;;;;;;;;5047376;28;20433;-77
2022/03/30 09:14:28;;;;;;;0.68;0.52;;;;;;;;;;5047426;28;20044;-76
2022/03/30 09:16:56;;;;;;;0.43;0.43;;;;;;;;;;5061871;28;20025;-76
2022/03/30 09:19:23;;;;;;;0.60;0.60;;;;;;;;;;5047312;28;20032;-76
2022/03/30 09:21:50;;;;;;;2.13;1.17;;;;;;;;;;5063514;28;20519;-75
2022/03/30 09:24:19;;;;;;;1.13;1.02;;;;;;;;;;5047646;28;20351;-75
2022/03/30 09:26:46;;;;;;;1.27;0.85;;;;;;;;;;5065227;28;20029;-76
2022/03/30 09:29:13;;;;;;;1.15;1.13;;;;;;;;;;5047838;28;20025;-76
2022/03/30 09:31:41;;;;;;;3.55;0.75;;;;;;;;;;5063641;28;20036;-77
2022/03/30 09:34:09;;;;;;;4.07;2.92;;;;;;;;;;5049190;28;20032;-78
2022/03/30 09:36:36;;;;;;;3.40;0.85;;;;;;;;;;5066790;28;20027;-77
2022/03/30 09:39:04;;;;;;;9.23;2.03;;;;;;;;;;5046097;28;20040;-77
2022/03/30 09:41:46;;;;;;;0.90;0.90;;;;;;;;;;5049410;28;20029;-76
2022/03/30 09:44:12;;;;;;;2.22;2.08;;;;;;;;;;5063259;28;20024;-74
2022/03/30 09:47:08;;;;;;;1.23;1.13;;;;;;;;;;5060073;28;20020;-77
2022/03/30 09:49:35;;;;;;;6.65;3.25;;;;;;;;;;5041978;28;20041;-76
2022/03/30 09:52:02;;;;;;;6.30;1.55;;;;;;;;;;5062773;28;20361;-78
2022/03/30 09:54:47;;;;;;;7.13;2.55;;;;;;;;;;5068159;28;20632;-76
2022/03/30 09:57:19;;;;;;;0.32;0.22;;;;;;;;;;5063917;28;20107;-78
2022/03/30 10:00:04;;;;;;;0.00;0.00;;;;;;;;;;5061770;28;20368;-75
2022/03/30 10:02:31;;;;;;;0.28;0.28;;;;;;;;;;5045938;28;20075;-76
2022/03/30 10:04:58;;;;;;;0.00;0.00;;;;;;;;;;5052658;28;20086;-75
2022/03/30 10:07:24;;;;;;;34.67;3.97;;;;;;;;;;5047054;28;20042;-76
2022/03/30 10:09:51;;;;;;;11.40;1.00;;;;;;;;;;5049968;28;20384;-76
2022/03/30 10:12:19;;;;;;;6.03;4.03;;;;;;;;;;5046001;28;20477;-78
2022/03/30 10:14:46;;;;;;;4.47;1.98;;;;;;;;;;5052100;28;20094;-77
2022/03/30 10:17:13;;;;;;;3.33;0.25;;;;;;;;;;5069181;28;20020;-77
2022/03/30 10:19:44;;;;;;;1.40;0.57;;;;;;;;;;5071102;28;20024;-76
2022/03/30 10:22:20;;;;;;;0.00;0.00;;;;;;;;;;5050512;28;20021;-77
2022/03/30 10:25:01;;;;;;;19.80;4.85;;;;;;;;;;5085780;28;20097;-77
2022/03/30 10:27:36;;;;;;;0.10;0.08;;;;;;;;;;5084531;28;20028;-78
2022/03/30 10:30:05;;;;;;;2.55;0.75;;;;;;;;;;5073688;28;20109;-76
2022/03/30 10:32:40;;;;;;;0.35;0.35;;;;;;;;;;5055109;28;20025;-77
2022/03/30 10:35:11;;;;;;;0.30;0.30;;;;;;;;;;5053139;28;20487;-76
2022/03/30 10:37:44;;;;;;;1.10;0.28;;;;;;;;;;5067454;28;20074;-78
2022/03/30 10:40:12;;;;;;;0.47;0.43;;;;;;;;;;5056236;28;20578;-79
2022/03/30 10:42:47;;;;;;;0.75;0.20;;;;;;;;;;5069180;28;20028;-77
2022/03/30 10:45:34;;;;;;;1.80;1.05;;;;;;;;;;5046313;28;20112;-79
2022/03/30 10:48:17;;;;;;;2.70;0.82;;;;;;;;;;5024632;28;20439;-77
2022/03/30 10:50:51;;;;;;;0.65;0.17;;;;;;;;;;5052188;28;20024;-79
2022/03/30 10:53:35;;;;;;;1.48;0.55;;;;;;;;;;5046557;28;20882;-76
2022/03/30 10:56:09;;;;;;;9.23;3.85;;;;;;;;;;5049481;28;20080;-75
2022/03/30 10:59:01;;;;;;;0.25;0.25;;;;;;;;;;5066994;28;20025;-76
2022/03/30 11:01:32;;;;;;;1.13;0.85;;;;;;;;;;5054654;28;20032;-80
2022/03/30 11:04:04;;;;;;;0.25;0.25;;;;;;;;;;5073680;28;20020;-79
2022/03/30 11:06:32;;;;;;;0.43;0.10;;;;;;;;;;5051882;28;20058;-80
2022/03/30 11:08:59;;;;;;;1.13;0.38;;;;;;;;;;5056266;28;20032;-80
2022/03/30 11:11:26;;;;;;;0.55;0.55;;;;;;;;;;5077034;28;20103;-80
2022/03/30 11:14:11;;;;;;;0.10;0.10;;;;;;;;;;5071338;28;20127;-80
2022/03/30 11:16:50;;;;;;;0.00;0.00;;;;;;;;;;5071861;28;20024;-80
2022/03/30 11:19:18;;;;;;;2.92;1.00;;;;;;;;;;5054456;28;20052;-80
2022/03/30 11:21:55;;;;;;;0.45;0.35;;;;;;;;;;5047588;28;20074;-78
2022/03/30 11:24:24;;;;;;;0.00;0.00;;;;;;;;;;5053261;28;20767;-80
2022/03/30 11:26:51;;;;;;;1.85;1.75;;;;;;;;;;5054995;28;20111;-80
2022/03/30 11:29:43;;;;;;;4.95;0.65;;;;;;;;;;5073632;28;20024;-79
2022/03/30 11:32:24;;;;;;;0.20;0.10;;;;;;;;;;5060201;28;20043;-79
2022/03/30 11:34:58;;;;;;;0.00;0.00;;;;;;;;;;5047456;28;20040;-82
2022/03/30 11:37:27;;;;;;;0.10;0.10;;;;;;;;;;5069338;28;20025;-81
2022/03/30 11:40:20;;;;;;;0.00;0.00;;;;;;;;;;5048674;28;20138;-79
2022/03/30 11:42:48;;;;;;;0.00;0.00;;;;;;;;;;5050624;28;20135;-80
2022/03/30 11:45:18;;;;;;;0.00;0.00;;;;;;;;;;5081816;28;20051;-80
2022/03/30 11:47:45;;;;;;;0.00;0.00;;;;;;;;;;5065729;28;20029;-79
2022/03/30 11:50:16;;;;;;;0.22;0.22;;;;;;;;;;5055032;28;20199;-80
2022/03/30 11:52:44;;;;;;;0.08;0.08;;;;;;;;;;5051243;28;20110;-80
2022/03/30 11:55:10;;;;;;;0.80;0.80;;;;;;;;;;5067385;28;20495;-81
2022/03/30 11:57:41;;;;;;;2.42;0.40;;;;;;;;;;5047132;28;20032;-77
2022/03/30 12:00:09;;;;;;;1.00;0.32;;;;;;;;;;5065553;28;20028;-79
2022/03/30 12:02:43;;;;;;;0.20;0.20;;;;;;;;;;5045687;28;20031;-77
2022/03/30 12:05:10;;;;;;;0.00;0.00;;;;;;;;;;5045571;28;20511;-77
2022/03/30 12:07:37;;;;;;;0.00;0.00;;;;;;;;;;5053455;28;20043;-77
2022/03/30 12:10:05;;;;;;;0.20;0.20;;;;;;;;;;5050781;28;20105;-77
2022/03/30 12:12:37;;;;;;;0.00;0.00;;;;;;;;;;5050306;28;20060;-79
2022/03/30 12:15:06;;;;;;;0.00;0.00;;;;;;;;;;5069271;28;20047;-78
2022/03/30 12:17:33;;;;;;;0.22;0.20;;;;;;;;;;5067143;28;20291;-78
2022/03/30 12:20:02;;;;;;;0.30;0.30;;;;;;;;;;5070814;28;20035;-78
2022/03/30 12:22:29;;;;;;;1.55;0.75;;;;;;;;;;5058401;28;20020;-78
2022/03/30 12:24:56;;;;;;;0.00;0.00;;;;;;;;;;5055227;28;20020;-79
2022/03/30 12:27:23;;;;;;;0.00;0.00;;;;;;;;;;5054167;28;20021;-78
2022/03/30 12:29:49;;;;;;;0.00;0.00;;;;;;;;;;5060039;28;20387;-77
2022/03/30 12:32:16;;;;;;;0.47;0.47;;;;;;;;;;5052486;28;20075;-77
2022/03/30 12:34:43;;;;;;;0.00;0.00;;;;;;;;;;5071959;28;20033;-78
2022/03/30 12:37:11;;;;;;;2.33;2.20;;;;;;;;;;5071787;28;20048;-78
2022/03/30 12:39:40;;;;;;;0.00;0.00;;;;;;;;;;5050910;28;20023;-77
2022/03/30 12:42:07;;;;;;;0.00;0.00;;;;;;;;;;5070443;28;20051;-78
2022/03/30 12:44:34;;;;;;;0.00;0.00;;;;;;;;;;5068561;28;20030;-79
2022/03/30 12:47:04;;;;;;;0.70;0.70;;;;;;;;;;5052871;28;20384;-76
2022/03/30 12:49:34;;;;;;;0.40;0.40;;;;;;;;;;5053905;28;20112;-77
2022/03/30 12:52:14;;;;;;;2.15;2.05;;;;;;;;;;5051015;28;20036;-77
2022/03/30 12:54:41;;;;;;;0.00;0.00;;;;;;;;;;5047015;28;20062;-77
2022/03/30 12:57:08;;;;;;;1.08;1.08;;;;;;;;;;5053041;28;20512;-77
2022/03/30 12:59:35;;;;;;;0.20;0.20;;;;;;;;;;5064146;28;20104;-76
2022/03/30 13:02:16;;;;;;;0.00;0.00;;;;;;;;;;5092682;28;20020;-78
2022/03/30 13:04:48;;;;;;;0.52;0.32;;;;;;;;;;5082953;28;20070;-75
2022/03/30 13:07:16;;;;;;;0.00;0.00;;;;;;;;;;5089421;28;20028;-80
2022/03/30 13:10:01;;;;;;;0.00;0.00;;;;;;;;;;5089073;28;20104;-77
2022/03/30 13:12:31;;;;;;;0.00;0.00;;;;;;;;;;5084821;28;20024;-78
2022/03/30 13:15:04;;;;;;;0.00;0.00;;;;;;;;;;5079985;28;20064;-79
2022/03/30 13:17:30;;;;;;;0.00;0.00;;;;;;;;;;5084072;28;20028;-79
2022/03/30 13:20:00;;;;;;;0.00;0.00;;;;;;;;;;5070649;28;20107;-81
2022/03/30 13:22:27;;;;;;;0.00;0.00;;;;;;;;;;5088526;28;20032;-76
2022/03/30 13:24:54;;;;;;;18.08;4.20;;;;;;;;;;5058353;28;20048;-77
2022/03/30 13:27:21;;;;;;;0.00;0.00;;;;;;;;;;5053271;28;20480;-78
2022/03/30 13:29:48;;;;;;;0.00;0.00;;;;;;;;;;5055295;28;20502;-79
2022/03/30 13:32:17;;;;;;;0.10;0.10;;;;;;;;;;5054931;28;20463;-78
2022/03/30 13:34:43;;;;;;;0.00;0.00;;;;;;;;;;5054727;28;20041;-78
2022/03/30 13:37:10;;;;;;;0.00;0.00;;;;;;;;;;5053023;28;20105;-79
2022/03/30 13:39:36;;;;;;;0.00;0.00;;;;;;;;;;5070707;28;20047;-77
2022/03/30 13:42:02;;;;;;;0.00;0.00;;;;;;;;;;5039169;28;20028;-79
2022/03/30 13:44:30;;;;;;;0.00;0.00;;;;;;;;;;5053876;28;20036;-77
2022/03/30 13:46:56;;;;;;;3.78;3.53;;;;;;;;;;5051436;28;20033;-77
2022/03/30 13:49:41;;;;;;;0.00;0.00;;;;;;;;;;5043892;28;20029;-77
2022/03/30 13:52:07;;;;;;;0.00;0.00;;;;;;;;;;5063790;28;20059;-77
2022/03/30 13:54:33;;;;;;;0.00;0.00;;;;;;;;;;5054246;28;20447;-77
2022/03/30 13:57:00;;;;;;;2.13;2.03;;;;;;;;;;5056687;28;20060;-79
2022/03/30 13:59:26;;;;;;;0.00;0.00;;;;;;;;;;5055220;28;20503;-78
2022/03/30 14:01:52;;;;;;;0.00;0.00;;;;;;;;;;5053067;28;20311;-78
2022/03/30 14:04:21;;;;;;;7.85;7.55;;;;;;;;;;5056457;28;20085;-78
2022/03/30 14:06:47;;;;;;;0.22;0.22;;;;;;;;;;5073808;28;20024;-77
2022/03/30 14:09:13;;;;;;;0.00;0.00;;;;;;;;;;5054339;28;20025;-77
2022/03/30 14:11:40;;;;;;;0.00;0.00;;;;;;;;;;5072551;28;20032;-76
2022/03/30 14:14:06;;;;;;;0.00;0.00;;;;;;;;;;5056077;28;20496;-77
2022/03/30 14:16:32;;;;;;;0.20;0.20;;;;;;;;;;5074020;28;20055;-77
2022/03/30 14:18:59;;;;;;;6.55;6.30;;;;;;;;;;5073171;28;20032;-77
2022/03/30 14:21:25;;;;;;;2.70;2.15;;;;;;;;;;5074439;28;20376;-76
2022/03/30 14:23:52;;;;;;;2.08;1.98;;;;;;;;;;5055452;28;20020;-77
2022/03/30 14:26:18;;;;;;;1.33;1.30;;;;;;;;;;5057126;28;20365;-77
2022/03/30 14:28:44;;;;;;;0.00;0.00;;;;;;;;;;5058072;28;20032;-77
2022/03/30 14:31:10;;;;;;;0.10;0.10;;;;;;;;;;5054812;28;20032;-77
2022/03/30 14:33:37;;;;;;;1.80;1.70;;;;;;;;;;5057395;28;20060;-77
2022/03/30 14:36:04;;;;;;;0.13;0.13;;;;;;;;;;5060538;28;20028;-77
2022/03/30 14:38:30;;;;;;;2.08;2.00;;;;;;;;;;5059068;28;20411;-77
2022/03/30 14:40:57;;;;;;;2.20;2.10;;;;;;;;;;5060977;28;20031;-77
2022/03/30 14:43:24;;;;;;;0.22;0.22;;;;;;;;;;5073996;28;20019;-77
2022/03/30 14:45:51;;;;;;;5.18;4.88;;;;;;;;;;5056119;28;20112;-78
2022/03/30 14:48:18;;;;;;;0.85;0.85;;;;;;;;;;5074262;28;20025;-78
2022/03/30 14:50:44;;;;;;;0.10;0.10;;;;;;;;;;5056134;28;20507;-78
2022/03/30 14:53:11;;;;;;;0.52;0.52;;;;;;;;;;5073801;28;20032;-76
2022/03/30 14:55:37;;;;;;;3.17;3.03;;;;;;;;;;5056457;28;20082;-77